Aérodrome :
LOGIN :

S'inscrire | Disclaimer

   EN    FR    IT 

 










Légende :    VFR   VFR Marginal   IFR   IFR Intensif   IFR Très Intensif
Visi : 
Plafond : 
>= 8 km
>= 3000ft
5 à 8 km
1000 à 3000 ft
1500m à 5 km
500 à 1000 ft
800 à 1500m
200 à 500 ft
< 800m
< 200 ft
Symboles :   Orages  Brouillard  Fortes neiges  Fortes précipitations  Vent > 20 kt
SIGMETs :   Divers  Orages  Givrage  Turbulence  Onde Orograph.  Cendres Volcan.







- Altitude de l'aérodrome : 13 ft
- Code IATA : CEQ
- Voir les cartes d'approche


LFMD - Cannes Mandelieu

DERNIER METAR :
  • 230230Z AUTO VRB03KT CAVOK 21/19 Q1015 NOSIG

METARs EXPIRÉS :
  • 230200Z AUTO VRB01KT CAVOK 21/19 Q1015
  • 230130Z AUTO VRB02KT CAVOK 21/19 Q1015
  • 230100Z AUTO VRB03KT CAVOK 21/19 Q1015
  • 230030Z AUTO 01004KT 340V050 CAVOK 21/19 Q1015
  • 230000Z AUTO 35003KT 290V040 CAVOK 21/19 Q1015
  • 222330Z AUTO VRB03KT CAVOK 22/20 Q1016

TAF TAF LFMD
Valide du 23 à 03h jusqu'au 24 à 03h UTC


230200Z 2303/2403 VRB02KT CAVOK
BECMG 2307/2309 14005KT
BECMG 2311/2313 20015G25KT
BECMG 2317/2319 VRB03KT
PROB40
TEMPO 2322/2401 34010G25KT SHRA FEW070TCU
ATIS : +33 4 93 48 73 23
Pas de NOTAMs connus pour ce terrain.



MET'MAP, la Météo Aéronautique d'un coup d'oeil ! - Copyright ORBIFLY Décembre 2007 - Disclaimer

ORBIFLY MET'MAP TEAM :

Programmation & Développement : Alexandra Zaïnal
Conception & Développement : Baudouin d'Aumeries
Co-Programmation & Développement : Marc-Olivier Méhu
Soutien technique & logistique : Manuel Goepfert

Contact : metmap@orbifly.com




SOURCES & CREDITS :

   NOAA